Flight Track Log - Related Links

Times and Time Zones

All times are in EDT time to prevent confusion due to time zone crossing. See the CSN6817 flight status page for this flight to view local times or setup timezone preferences in your user account.

Time Position Orientation Groundspeed Altitude Reporting Facility
EDT Latitude Longitude Course Direction KTS MPH feet Rate Location/Type
Mon 08:33:00 PM 43.8070 87.3465 223° Southwest  Level Estimated
Mon 08:34:00 PM 43.7067 87.2192 223° Southwest  Level Estimated
Mon 08:35:00 PM 43.6063 87.0923 222° Southwest  Level Estimated
Mon 08:36:00 PM 43.5058 86.9659 222° Southwest  Level Estimated
Mon 08:37:00 PM 43.4051 86.8399 222° Southwest  Level Estimated
Mon 08:38:00 PM 43.3043 86.7143 222° Southwest  Level Estimated
Mon 08:39:00 PM 43.2034 86.5891 222° Southwest  Level Estimated
Mon 08:40:00 PM 43.1023 86.4643 222° Southwest  Level Estimated
Mon 08:41:00 PM 43.0010 86.3399 222° Southwest  Level Estimated
Mon 08:42:00 PM 42.8997 86.2160 222° Southwest  Level Estimated
Mon 08:43:00 PM 42.7982 86.0924 222° Southwest  Level Estimated
Mon 08:44:00 PM 42.6966 85.9693 222° Southwest  Level Estimated
Mon 08:45:00 PM 42.5948 85.8465 222° Southwest  Level Estimated
Mon 08:46:00 PM 42.4930 85.7242 222° Southwest  Level Estimated
Mon 08:47:00 PM 42.3909 85.6022 221° Southwest  Level Estimated
Mon 08:48:00 PM 42.2888 85.4807 221° Southwest  Level Estimated
Mon 08:49:00 PM 42.1865 85.3595 221° Southwest  Level Estimated
Mon 08:50:00 PM 42.0841 85.2387 221° Southwest  Level Estimated
Mon 08:51:00 PM 41.9816 85.1183 221° Southwest  Level Estimated
Mon 08:52:00 PM 41.8790 84.9984 221° Southwest  Level Estimated
Mon 08:53:00 PM 41.7762 84.8788 221° Southwest  Level Estimated
Mon 08:54:00 PM 41.6733 84.7595 221° Southwest  Level Estimated
Mon 08:55:00 PM 41.5703 84.6407 221° Southwest  Level Estimated
Mon 08:56:00 PM 41.4671 84.5222 221° Southwest  Level Estimated
Mon 08:57:00 PM 41.3639 84.4041 221° Southwest  Level Estimated
Mon 08:58:00 PM 41.2605 84.2864 221° Southwest  Level Estimated
Mon 08:59:00 PM 41.1570 84.1691 220° Southwest  Level Estimated
Mon 09:00:00 PM 41.0534 84.0521 220° Southwest  Level Estimated
Mon 09:01:00 PM 40.9496 83.9355 220° Southwest  Level Estimated
Mon 09:02:00 PM 40.8458 83.8193 220° Southwest  Level Estimated
Mon 09:03:00 PM 40.7418 83.7034 220° Southwest  Level Estimated
Mon 09:04:00 PM 40.6377 83.5879 220° Southwest  Level Estimated
Mon 09:05:00 PM 40.5335 83.4728 220° Southwest  Level Estimated
Mon 09:06:00 PM 40.4292 83.3580 220° Southwest  Level Estimated
Mon 09:07:00 PM 40.3248 83.2435 220° Southwest  Level Estimated
Mon 09:08:00 PM 40.2202 83.1294 220° Southwest  Level Estimated
Mon 09:09:00 PM 40.1156 83.0157 220° Southwest  Level Estimated
Mon 09:10:00 PM 40.0108 82.9023 220° Southwest  Level Estimated
Mon 09:11:00 PM 39.9059 82.7893 220° Southwest  Level Estimated
Mon 09:12:00 PM 39.8010 82.6766 220° Southwest  Level Estimated
Mon 09:13:00 PM 39.6959 82.5643 219° Southwest  Level Estimated
Mon 09:14:00 PM 39.5907 82.4523 219° Southwest  Level Estimated
Mon 09:15:00 PM 39.4854 82.3406 219° Southwest  Level Estimated
Mon 09:16:00 PM 39.3800 82.2293 219° Southwest  Level Estimated
Mon 09:17:00 PM 39.2744 82.1183 219° Southwest  Level Estimated
Mon 09:18:00 PM 39.1688 82.0077 219° Southwest  Level Estimated
Mon 09:19:00 PM 39.0631 81.8973 219° Southwest  Level Estimated
Mon 09:20:00 PM 38.9573 81.7874 219° Southwest  Level Estimated
Mon 09:21:00 PM 38.8513 81.6777 219° Southwest  Level Estimated
Mon 09:22:00 PM 38.7453 81.5684 219° Southwest  Level Estimated
Mon 09:23:00 PM 38.6391 81.4593 219° Southwest  Level Estimated
Mon 09:24:00 PM 38.5329 81.3506 219° Southwest  Level Estimated
Mon 09:25:00 PM 38.4266 81.2423 219° Southwest  Level Estimated
Mon 09:26:00 PM 38.3201 81.1342 219° Southwest  Level Estimated
Mon 09:27:00 PM 38.2136 81.0265 218° Southwest  Level Estimated
Mon 09:28:00 PM 38.1069 80.9191 218° Southwest  Level Estimated
Mon 09:29:00 PM 38.0002 80.8120 218° Southwest  Level Estimated
Mon 09:30:00 PM 37.8934 80.7052 218° Southwest  Level Estimated
Mon 09:31:00 PM 37.7864 80.5987 218° Southwest  Level Estimated
Mon 09:32:00 PM 37.6794 80.4925 218° Southwest  Level Estimated
Mon 09:33:00 PM 37.5723 80.3867 218° Southwest  Level Estimated
Mon 09:34:00 PM 37.4651 80.2811 218° Southwest  Level Estimated
Mon 09:35:00 PM 37.3578 80.1758 218° Southwest  Level Estimated
Mon 09:36:00 PM 37.2504 80.0709 218° Southwest  Level Estimated
Mon 09:37:00 PM 37.1429 79.9662 218° Southwest  Level Estimated
Mon 09:38:00 PM 37.0385 79.8649 218° Southwest  Level Estimated
Mon 09:39:00 PM 37.0385 79.8649 50° Northeast  Level Estimated
Mon 09:40:00 PM 37.0385 79.8649 50° Northeast  Level Estimated
Mon 09:41:00 PM 37.0385 79.8649 50° Northeast  Level Estimated
Mon 09:42:00 PM 37.0385 79.8649 50° Northeast  Level Estimated
Mon 09:43:00 PM 37.0385 79.8649 50° Northeast  Level Estimated
Mon 09:44:00 PM 37.0385 79.8649 50° Northeast  Level Estimated
Mon 09:45:00 PM 37.0385 79.8649 50° Northeast  Level Estimated
Mon 09:46:00 PM 37.0385 79.8649 50° Northeast  Level Estimated
Mon 09:47:00 PM 37.0385 79.8649 50° Northeast  Level Estimated
Mon 09:48:00 PM 37.0385 79.8649 50° Northeast  Level Estimated
Mon 09:49:00 PM 37.0385 79.8649 50° Northeast  Level Estimated

Login

Don't have an account? Register now (free) for customized features, flight alerts, and more!